sensor_id;sensor_type;location;lat;lon;timestamp;pressure;altitude;pressure_sealevel;temperature;humidity
53758;BME280;39674;59.860;30.672;2023-05-01T00:00:31;100822.44;;;3.13;100.00
53758;BME280;39674;59.860;30.672;2023-05-01T00:03:07;100818.19;;;3.08;100.00
53758;BME280;39674;59.860;30.672;2023-05-01T00:05:46;100814.66;;;3.12;100.00
53758;BME280;39674;59.860;30.672;2023-05-01T00:08:17;100785.28;;;3.00;100.00
53758;BME280;39674;59.860;30.672;2023-05-01T00:10:53;100779.22;;;3.00;100.00
53758;BME280;39674;59.860;30.672;2023-05-01T00:13:24;100780.06;;;3.00;100.00
53758;BME280;39674;59.860;30.672;2023-05-01T00:15:58;100798.03;;;3.16;100.00
53758;BME280;39674;59.860;30.672;2023-05-01T00:18:31;100852.00;;;3.59;100.00
53758;BME280;39674;59.860;30.672;2023-05-01T00:21:03;100804.91;;;3.20;100.00
53758;BME280;39674;59.860;30.672;2023-05-01T00:23:33;100776.63;;;2.98;100.00
53758;BME280;39674;59.860;30.672;2023-05-01T00:26:17;100771.34;;;3.01;100.00
53758;BME280;39674;59.860;30.672;2023-05-01T00:28:53;100739.63;;;2.78;100.00
53758;BME280;39674;59.860;30.672;2023-05-01T00:31:31;100838.69;;;3.29;100.00
53758;BME280;39674;59.860;30.672;2023-05-01T00:34:06;100761.34;;;2.80;100.00
53758;BME280;39674;59.860;30.672;2023-05-01T00:36:42;100721.88;;;2.50;100.00
53758;BME280;39674;59.860;30.672;2023-05-01T00:39:11;100838.03;;;3.18;100.00
53758;BME280;39674;59.860;30.672;2023-05-01T00:41:51;100756.34;;;2.66;100.00
53758;BME280;39674;59.860;30.672;2023-05-01T00:44:22;100706.66;;;2.25;100.00
53758;BME280;39674;59.860;30.672;2023-05-01T00:46:57;100765.28;;;2.54;100.00
53758;BME280;39674;59.860;30.672;2023-05-01T00:49:38;100825.56;;;2.87;100.00
53758;BME280;39674;59.860;30.672;2023-05-01T00:52:20;100751.50;;;2.46;100.00
53758;BME280;39674;59.860;30.672;2023-05-01T00:55:16;100768.50;;;2.67;100.00
53758;BME280;39674;59.860;30.672;2023-05-01T00:57:46;100712.72;;;2.25;100.00
53758;BME280;39674;59.860;30.672;2023-05-01T01:00:25;100739.56;;;2.32;100.00
53758;BME280;39674;59.860;30.672;2023-05-01T01:03:04;100706.22;;;1.98;100.00
53758;BME280;39674;59.860;30.672;2023-05-01T01:05:44;100736.41;;;2.12;100.00
53758;BME280;39674;59.860;30.672;2023-05-01T01:08:21;100803.69;;;2.43;100.00
53758;BME280;39674;59.860;30.672;2023-05-01T01:11:06;100815.56;;;2.61;100.00
53758;BME280;39674;59.860;30.672;2023-05-01T01:14:12;100786.44;;;2.34;100.00
53758;BME280;39674;59.860;30.672;2023-05-01T01:17:05;100708.19;;;1.84;100.00
53758;BME280;39674;59.860;30.672;2023-05-01T01:22:56;100719.53;;;1.80;100.00
53758;BME280;39674;59.860;30.672;2023-05-01T01:26:02;100707.47;;;1.75;100.00
53758;BME280;39674;59.860;30.672;2023-05-01T01:29:09;100742.75;;;1.95;100.00
53758;BME280;39674;59.860;30.672;2023-05-01T01:31:51;100808.19;;;2.33;100.00
53758;BME280;39674;59.860;30.672;2023-05-01T01:34:43;100729.19;;;1.74;100.00
53758;BME280;39674;59.860;30.672;2023-05-01T01:37:18;100757.69;;;1.82;100.00
53758;BME280;39674;59.860;30.672;2023-05-01T01:40:04;100764.59;;;1.85;100.00
53758;BME280;39674;59.860;30.672;2023-05-01T01:42:48;100740.59;;;1.64;100.00
53758;BME280;39674;59.860;30.672;2023-05-01T01:45:39;100764.75;;;1.75;100.00
53758;BME280;39674;59.860;30.672;2023-05-01T01:48:17;100741.44;;;1.66;100.00
53758;BME280;39674;59.860;30.672;2023-05-01T01:50:56;100792.28;;;1.92;100.00
53758;BME280;39674;59.860;30.672;2023-05-01T01:53:30;100680.38;;;1.28;100.00
53758;BME280;39674;59.860;30.672;2023-05-01T01:56:10;100769.00;;;1.81;100.00
53758;BME280;39674;59.860;30.672;2023-05-01T01:58:52;100752.69;;;1.68;100.00
53758;BME280;39674;59.860;30.672;2023-05-01T02:01:24;100699.28;;;1.39;100.00
53758;BME280;39674;59.860;30.672;2023-05-01T02:04:02;100709.66;;;1.42;100.00
53758;BME280;39674;59.860;30.672;2023-05-01T02:06:39;100762.88;;;1.84;100.00
53758;BME280;39674;59.860;30.672;2023-05-01T02:09:15;100745.69;;;1.73;100.00
53758;BME280;39674;59.860;30.672;2023-05-01T02:11:48;100765.41;;;1.88;100.00
53758;BME280;39674;59.860;30.672;2023-05-01T02:14:26;100740.50;;;1.70;100.00
53758;BME280;39674;59.860;30.672;2023-05-01T02:17:02;100789.63;;;1.97;100.00
53758;BME280;39674;59.860;30.672;2023-05-01T02:19:45;100808.56;;;2.08;100.00
53758;BME280;39674;59.860;30.672;2023-05-01T02:22:32;100681.16;;;1.33;100.00
53758;BME280;39674;59.860;30.672;2023-05-01T02:25:14;100763.72;;;1.86;100.00
53758;BME280;39674;59.860;30.672;2023-05-01T02:28:11;100671.63;;;1.32;100.00
53758;BME280;39674;59.860;30.672;2023-05-01T02:30:57;100736.19;;;1.68;100.00
53758;BME280;39674;59.860;30.672;2023-05-01T02:33:34;100700.91;;;1.47;100.00
53758;BME280;39674;59.860;30.672;2023-05-01T02:37:48;100817.16;;;2.15;100.00
53758;BME280;39674;59.860;30.672;2023-05-01T02:39:13;100763.75;;;1.84;100.00
53758;BME280;39674;59.860;30.672;2023-05-01T02:41:50;100721.63;;;1.56;100.00
53758;BME280;39674;59.860;30.672;2023-05-01T02:44:26;100812.00;;;2.10;100.00
53758;BME280;39674;59.860;30.672;2023-05-01T02:46:59;100772.38;;;1.86;100.00
53758;BME280;39674;59.860;30.672;2023-05-01T02:49:52;100763.75;;;1.84;100.00
53758;BME280;39674;59.860;30.672;2023-05-01T02:52:36;100762.88;;;1.84;100.00
53758;BME280;39674;59.860;30.672;2023-05-01T02:56:03;100828.31;;;2.23;100.00
53758;BME280;39674;59.860;30.672;2023-05-01T02:58:54;100746.59;;;1.71;100.00
53758;BME280;39674;59.860;30.672;2023-05-01T03:01:31;100819.69;;;2.18;100.00
53758;BME280;39674;59.860;30.672;2023-05-01T03:04:17;100754.16;;;1.88;100.00
53758;BME280;39674;59.860;30.672;2023-05-01T03:07:12;100735.28;;;1.70;100.00
53758;BME280;39674;59.860;30.672;2023-05-01T03:10:15;100819.59;;;2.24;100.00
53758;BME280;39674;59.860;30.672;2023-05-01T03:12:57;100755.88;;;1.89;100.00
53758;BME280;39674;59.860;30.672;2023-05-01T03:15:59;100695.66;;;1.51;100.00
53758;BME280;39674;59.860;30.672;2023-05-01T03:19:09;100811.84;;;2.21;100.00
53758;BME280;39674;59.860;30.672;2023-05-01T03:21:47;100674.19;;;1.35;100.00
53758;BME280;39674;59.860;30.672;2023-05-01T03:24:43;100672.38;;;1.40;100.00
53758;BME280;39674;59.860;30.672;2023-05-01T03:27:24;100739.38;;;1.88;100.00
53758;BME280;39674;59.860;30.672;2023-05-01T03:30:14;100674.78;;;1.56;100.00
53758;BME280;39674;59.860;30.672;2023-05-01T03:32:52;100766.81;;;2.13;100.00
53758;BME280;39674;59.860;30.672;2023-05-01T03:35:31;100760.66;;;2.17;100.00
53758;BME280;39674;59.860;30.672;2023-05-01T03:38:16;100715.09;;;1.86;100.00
53758;BME280;39674;59.860;30.672;2023-05-01T03:41:33;100739.09;;;2.07;100.00
53758;BME280;39674;59.860;30.672;2023-05-01T03:44:35;100779.50;;;2.34;100.00
53758;BME280;39674;59.860;30.672;2023-05-01T03:48:20;100676.91;;;1.87;100.00
53758;BME280;39674;59.860;30.672;2023-05-01T03:50:35;100685.53;;;1.90;100.00
53758;BME280;39674;59.860;30.672;2023-05-01T03:53:43;100679.34;;;1.96;100.00
53758;BME280;39674;59.860;30.672;2023-05-01T03:56:49;100694.94;;;1.99;100.00
53758;BME280;39674;59.860;30.672;2023-05-01T03:59:49;100666.56;;;1.81;100.00
53758;BME280;39674;59.860;30.672;2023-05-01T04:02:48;100703.59;;;2.01;100.00
53758;BME280;39674;59.860;30.672;2023-05-01T04:05:36;100681.16;;;1.91;100.00
53758;BME280;39674;59.860;30.672;2023-05-01T04:08:57;100730.09;;;2.28;100.00
53758;BME280;39674;59.860;30.672;2023-05-01T04:11:39;100678.53;;;1.94;100.00
53758;BME280;39674;59.860;30.672;2023-05-01T04:14:18;100698.22;;;2.11;100.00
53758;BME280;39674;59.860;30.672;2023-05-01T04:17:05;100822.03;;;2.88;100.00
53758;BME280;39674;59.860;30.672;2023-05-01T04:19:55;100668.88;;;1.99;100.00
53758;BME280;39674;59.860;30.672;2023-05-01T04:22:42;100693.78;;;2.16;100.00
53758;BME280;39674;59.860;30.672;2023-05-01T04:25:28;100696.31;;;2.20;100.00
53758;BME280;39674;59.860;30.672;2023-05-01T04:28:19;100758.22;;;2.59;100.00
53758;BME280;39674;59.860;30.672;2023-05-01T04:31:16;100774.41;;;2.77;100.00
53758;BME280;39674;59.860;30.672;2023-05-01T04:33:55;100757.81;;;2.81;100.00
53758;BME280;39674;59.860;30.672;2023-05-01T04:36:37;100681.16;;;2.44;100.00
53758;BME280;39674;59.860;30.672;2023-05-01T04:39:10;100759.97;;;3.04;100.00
53758;BME280;39674;59.860;30.672;2023-05-01T04:42:01;100823.44;;;3.51;100.00
53758;BME280;39674;59.860;30.672;2023-05-01T04:44:49;100683.06;;;2.80;100.00
53758;BME280;39674;59.860;30.672;2023-05-01T04:47:30;100811.63;;;3.76;100.00
53758;BME280;39674;59.860;30.672;2023-05-01T04:50:36;100730.63;;;3.36;100.00
53758;BME280;39674;59.860;30.672;2023-05-01T04:53:11;100763.94;;;3.66;100.00
53758;BME280;39674;59.860;30.672;2023-05-01T04:55:45;100809.34;;;3.99;100.00
53758;BME280;39674;59.860;30.672;2023-05-01T04:58:20;100813.06;;;4.28;100.00
53758;BME280;39674;59.860;30.672;2023-05-01T05:01:02;100763.75;;;4.13;100.00
53758;BME280;39674;59.860;30.672;2023-05-01T05:03:46;100769.94;;;4.45;100.00
53758;BME280;39674;59.860;30.672;2023-05-01T05:06:24;100772.91;;;4.65;100.00
53758;BME280;39674;59.860;30.672;2023-05-01T05:09:08;100813.91;;;5.00;100.00
53758;BME280;39674;59.860;30.672;2023-05-01T05:11:45;100710.09;;;4.32;100.00
53758;BME280;39674;59.860;30.672;2023-05-01T05:14:24;100745.84;;;4.66;100.00
53758;BME280;39674;59.860;30.672;2023-05-01T05:17:20;100767.38;;;5.09;100.00
53758;BME280;39674;59.860;30.672;2023-05-01T05:19:53;100780.91;;;5.55;100.00
53758;BME280;39674;59.860;30.672;2023-05-01T05:22:23;100774.97;;;5.80;100.00
53758;BME280;39674;59.860;30.672;2023-05-01T05:25:27;100716.66;;;5.43;100.00
53758;BME280;39674;59.860;30.672;2023-05-01T05:28:07;100790.84;;;6.04;100.00
53758;BME280;39674;59.860;30.672;2023-05-01T05:31:03;100814.00;;;6.19;100.00
53758;BME280;39674;59.860;30.672;2023-05-01T05:33:38;100772.09;;;5.88;100.00
53758;BME280;39674;59.860;30.672;2023-05-01T05:36:14;100700.97;;;5.42;100.00
53758;BME280;39674;59.860;30.672;2023-05-01T05:38:59;100785.78;;;5.98;100.00
53758;BME280;39674;59.860;30.672;2023-05-01T05:41:52;100754.97;;;6.06;100.00
53758;BME280;39674;59.860;30.672;2023-05-01T05:44:48;100739.63;;;5.92;98.41
53758;BME280;39674;59.860;30.672;2023-05-01T05:48:24;100718.03;;;5.55;97.06
53758;BME280;39674;59.860;30.672;2023-05-01T05:51:16;100735.59;;;5.53;97.20
53758;BME280;39674;59.860;30.672;2023-05-01T05:54:05;100706.25;;;5.40;95.47
53758;BME280;39674;59.860;30.672;2023-05-01T05:57:19;100844.16;;;6.33;95.20
53758;BME280;39674;59.860;30.672;2023-05-01T06:00:02;100756.16;;;5.66;94.31
53758;BME280;39674;59.860;30.672;2023-05-01T06:03:04;100784.75;;;5.73;95.07
53758;BME280;39674;59.860;30.672;2023-05-01T06:06:03;100814.06;;;6.16;97.26
53758;BME280;39674;59.860;30.672;2023-05-01T06:08:34;100818.78;;;6.60;94.19
53758;BME280;39674;59.860;30.672;2023-05-01T06:11:07;100862.19;;;7.22;92.89
53758;BME280;39674;59.860;30.672;2023-05-01T06:13:49;100818.75;;;7.12;91.62
53758;BME280;39674;59.860;30.672;2023-05-01T06:16:21;100814.75;;;7.51;90.18
53758;BME280;39674;59.860;30.672;2023-05-01T06:18:54;100797.69;;;7.63;86.30
53758;BME280;39674;59.860;30.672;2023-05-01T06:21:31;100870.00;;;8.43;82.48
53758;BME280;39674;59.860;30.672;2023-05-01T06:27:36;100835.47;;;8.50;77.79
53758;BME280;39674;59.860;30.672;2023-05-01T06:30:16;100815.72;;;8.83;79.82
53758;BME280;39674;59.860;30.672;2023-05-01T06:32:53;100870.53;;;9.16;75.28
53758;BME280;39674;59.860;30.672;2023-05-01T06:35:24;100881.50;;;8.85;76.26
53758;BME280;39674;59.860;30.672;2023-05-01T06:38:04;100886.50;;;8.91;75.82
53758;BME280;39674;59.860;30.672;2023-05-01T06:40:36;100881.59;;;8.81;72.97
53758;BME280;39674;59.860;30.672;2023-05-01T06:43:08;100841.22;;;8.60;72.74
53758;BME280;39674;59.860;30.672;2023-05-01T06:45:43;100835.59;;;9.11;74.35
53758;BME280;39674;59.860;30.672;2023-05-01T06:48:49;100851.25;;;9.74;74.59
53758;BME280;39674;59.860;30.672;2023-05-01T06:51:32;100835.56;;;10.09;69.92
53758;BME280;39674;59.860;30.672;2023-05-01T06:54:26;100777.31;;;9.95;68.74
53758;BME280;39674;59.860;30.672;2023-05-01T06:57:39;100836.22;;;10.86;69.31
53758;BME280;39674;59.860;30.672;2023-05-01T07:00:19;100808.66;;;10.92;67.21
53758;BME280;39674;59.860;30.672;2023-05-01T07:03:07;100773.16;;;10.26;62.41
53758;BME280;39674;59.860;30.672;2023-05-01T07:06:21;100852.53;;;10.23;67.33
53758;BME280;39674;59.860;30.672;2023-05-01T07:09:23;100809.81;;;10.15;64.03
53758;BME280;39674;59.860;30.672;2023-05-01T07:12:15;100782.78;;;10.09;62.95
53758;BME280;39674;59.860;30.672;2023-05-01T07:15:11;100903.44;;;10.63;64.13
53758;BME280;39674;59.860;30.672;2023-05-01T07:21:09;100847.00;;;9.32;65.57
53758;BME280;39674;59.860;30.672;2023-05-01T07:24:03;100833.00;;;9.51;66.89
53758;BME280;39674;59.860;30.672;2023-05-01T07:26:35;100873.34;;;10.10;63.72
53758;BME280;39674;59.860;30.672;2023-05-01T07:29:21;100872.94;;;10.38;65.14
53758;BME280;39674;59.860;30.672;2023-05-01T07:31:59;100860.00;;;10.69;65.87
53758;BME280;39674;59.860;30.672;2023-05-01T07:38:39;100873.94;;;10.17;64.72
53758;BME280;39674;59.860;30.672;2023-05-01T07:41:11;100822.16;;;9.95;65.93
53758;BME280;39674;59.860;30.672;2023-05-01T07:43:44;100850.97;;;10.55;65.03
53758;BME280;39674;59.860;30.672;2023-05-01T07:46:23;100787.06;;;10.49;60.91
53758;BME280;39674;59.860;30.672;2023-05-01T07:48:57;100861.19;;;10.63;60.99
53758;BME280;39674;59.860;30.672;2023-05-01T07:51:50;100868.81;;;10.69;61.72
53758;BME280;39674;59.860;30.672;2023-05-01T07:54:26;100801.50;;;10.41;62.63
53758;BME280;39674;59.860;30.672;2023-05-01T07:57:00;100863.31;;;10.91;59.50
53758;BME280;39674;59.860;30.672;2023-05-01T07:59:44;100868.06;;;11.02;60.04
53758;BME280;39674;59.860;30.672;2023-05-01T08:03:19;100909.69;;;11.32;60.50
53758;BME280;39674;59.860;30.672;2023-05-01T08:06:05;100865.25;;;11.56;58.13
53758;BME280;39674;59.860;30.672;2023-05-01T08:08:40;100847.69;;;11.71;53.60
53758;BME280;39674;59.860;30.672;2023-05-01T08:11:20;100832.38;;;11.45;53.06
53758;BME280;39674;59.860;30.672;2023-05-01T08:14:08;100867.75;;;11.42;57.47
53758;BME280;39674;59.860;30.672;2023-05-01T08:16:55;100846.97;;;11.52;56.38
53758;BME280;39674;59.860;30.672;2023-05-01T08:19:41;100898.75;;;12.23;53.26
53758;BME280;39674;59.860;30.672;2023-05-01T08:22:37;100798.78;;;11.79;53.31
53758;BME280;39674;59.860;30.672;2023-05-01T08:25:23;100910.00;;;12.11;49.57
53758;BME280;39674;59.860;30.672;2023-05-01T08:28:02;100868.69;;;12.08;49.68
53758;BME280;39674;59.860;30.672;2023-05-01T08:31:01;100865.41;;;12.51;48.80
53758;BME280;39674;59.860;30.672;2023-05-01T08:33:44;100913.41;;;12.77;45.86
53758;BME280;39674;59.860;30.672;2023-05-01T08:36:21;100800.06;;;12.35;45.40
53758;BME280;39674;59.860;30.672;2023-05-01T08:40:26;100913.34;;;13.54;46.50
53758;BME280;39674;59.860;30.672;2023-05-01T08:42:03;100804.91;;;12.43;39.91
53758;BME280;39674;59.860;30.672;2023-05-01T08:45:18;100849.03;;;12.75;42.91
53758;BME280;39674;59.860;30.672;2023-05-01T08:47:54;100877.06;;;12.63;42.33
53758;BME280;39674;59.860;30.672;2023-05-01T08:50:35;100845.03;;;12.67;41.77
53758;BME280;39674;59.860;30.672;2023-05-01T08:53:12;100807.84;;;12.39;41.10
53758;BME280;39674;59.860;30.672;2023-05-01T08:55:55;100814.97;;;12.52;41.71
53758;BME280;39674;59.860;30.672;2023-05-01T08:58:55;100858.47;;;13.40;42.65
53758;BME280;39674;59.860;30.672;2023-05-01T09:01:37;100857.91;;;13.63;40.77
53758;BME280;39674;59.860;30.672;2023-05-01T09:04:15;100931.44;;;14.05;41.95
53758;BME280;39674;59.860;30.672;2023-05-01T09:07:02;100814.47;;;13.64;41.37
53758;BME280;39674;59.860;30.672;2023-05-01T09:09:33;100915.91;;;13.99;40.97
53758;BME280;39674;59.860;30.672;2023-05-01T09:12:13;100875.72;;;13.76;41.44
53758;BME280;39674;59.860;30.672;2023-05-01T09:14:47;100938.00;;;13.99;39.82
53758;BME280;39674;59.860;30.672;2023-05-01T09:17:43;100869.47;;;13.62;41.21
53758;BME280;39674;59.860;30.672;2023-05-01T09:20:18;100923.25;;;14.37;40.87
53758;BME280;39674;59.860;30.672;2023-05-01T09:22:50;100872.34;;;14.43;40.56
53758;BME280;39674;59.860;30.672;2023-05-01T09:25:23;100863.41;;;14.31;38.99
53758;BME280;39674;59.860;30.672;2023-05-01T09:27:59;100897.72;;;14.34;37.62
53758;BME280;39674;59.860;30.672;2023-05-01T09:30:33;100930.78;;;14.01;37.33
53758;BME280;39674;59.860;30.672;2023-05-01T09:33:10;100880.75;;;13.66;39.32
53758;BME280;39674;59.860;30.672;2023-05-01T09:35:51;100923.09;;;14.53;40.29
53758;BME280;39674;59.860;30.672;2023-05-01T09:38:26;100937.78;;;15.00;37.99
53758;BME280;39674;59.860;30.672;2023-05-01T09:41:03;100850.41;;;14.54;37.06
53758;BME280;39674;59.860;30.672;2023-05-01T09:43:32;100934.59;;;15.08;37.33
53758;BME280;39674;59.860;30.672;2023-05-01T09:46:09;100859.88;;;14.98;38.41
53758;BME280;39674;59.860;30.672;2023-05-01T09:48:43;100894.19;;;15.29;37.98
53758;BME280;39674;59.860;30.672;2023-05-01T09:51:28;100915.50;;;15.54;36.45
53758;BME280;39674;59.860;30.672;2023-05-01T09:54:28;100870.78;;;15.34;34.83
53758;BME280;39674;59.860;30.672;2023-05-01T09:57:07;100889.28;;;15.10;34.80
53758;BME280;39674;59.860;30.672;2023-05-01T10:00:15;100869.81;;;15.35;34.85
53758;BME280;39674;59.860;30.672;2023-05-01T10:02:53;100858.63;;;15.04;35.58
53758;BME280;39674;59.860;30.672;2023-05-01T10:05:42;100881.13;;;15.26;34.41
53758;BME280;39674;59.860;30.672;2023-05-01T10:08:14;100927.28;;;15.37;35.51
53758;BME280;39674;59.860;30.672;2023-05-01T10:10:58;100931.34;;;15.30;34.64
53758;BME280;39674;59.860;30.672;2023-05-01T10:14:12;100820.97;;;14.29;34.15
53758;BME280;39674;59.860;30.672;2023-05-01T10:17:15;100891.84;;;14.56;35.08
53758;BME280;39674;59.860;30.672;2023-05-01T10:20:45;100870.16;;;14.50;34.52
53758;BME280;39674;59.860;30.672;2023-05-01T10:23:27;100873.50;;;14.39;34.50
53758;BME280;39674;59.860;30.672;2023-05-01T10:26:00;100926.41;;;14.71;32.89
53758;BME280;39674;59.860;30.672;2023-05-01T10:28:48;100851.03;;;14.03;34.78
53758;BME280;39674;59.860;30.672;2023-05-01T10:31:33;100936.53;;;14.37;34.31
53758;BME280;39674;59.860;30.672;2023-05-01T10:34:05;100922.13;;;14.26;34.25
53758;BME280;39674;59.860;30.672;2023-05-01T10:36:50;100889.34;;;13.99;36.91
53758;BME280;39674;59.860;30.672;2023-05-01T10:39:52;100857.16;;;14.45;36.40
53758;BME280;39674;59.860;30.672;2023-05-01T10:46:34;100881.97;;;14.73;34.23
53758;BME280;39674;59.860;30.672;2023-05-01T10:49:08;100858.81;;;14.33;34.89
53758;BME280;39674;59.860;30.672;2023-05-01T10:52:32;100816.56;;;13.88;32.50
53758;BME280;39674;59.860;30.672;2023-05-01T10:56:38;100906.44;;;13.94;35.02
53758;BME280;39674;59.860;30.672;2023-05-01T11:02:31;100928.56;;;14.37;35.17
53758;BME280;39674;59.860;30.672;2023-05-01T11:20:56;100921.78;;;14.04;35.03
53758;BME280;39674;59.860;30.672;2023-05-01T11:23:59;100939.19;;;14.22;35.50
53758;BME280;39674;59.860;30.672;2023-05-01T11:26:40;100895.81;;;13.94;33.85
53758;BME280;39674;59.860;30.672;2023-05-01T11:34:09;100893.72;;;13.42;34.64
53758;BME280;39674;59.860;30.672;2023-05-01T11:37:05;100835.47;;;12.65;34.88
53758;BME280;39674;59.860;30.672;2023-05-01T11:44:13;100834.69;;;12.32;36.64
53758;BME280;39674;59.860;30.672;2023-05-01T11:48:20;100879.59;;;12.50;37.52
53758;BME280;39674;59.860;30.672;2023-05-01T11:53:25;100905.31;;;12.94;37.52
53758;BME280;39674;59.860;30.672;2023-05-01T11:54:27;100829.06;;;12.07;37.69
53758;BME280;39674;59.860;30.672;2023-05-01T11:57:30;100816.38;;;11.80;37.29
53758;BME280;39674;59.860;30.672;2023-05-01T12:01:10;100909.28;;;11.91;38.44
53758;BME280;39674;59.860;30.672;2023-05-01T12:04:01;100896.69;;;11.79;39.01
53758;BME280;39674;59.860;30.672;2023-05-01T12:07:39;100949.38;;;11.83;39.44
53758;BME280;39674;59.860;30.672;2023-05-01T12:17:32;100847.00;;;10.47;40.03
53758;BME280;39674;59.860;30.672;2023-05-01T12:24:47;100954.00;;;10.92;41.03
53758;BME280;39674;59.860;30.672;2023-05-01T12:28:31;100830.00;;;10.16;39.87
53758;BME280;39674;59.860;30.672;2023-05-01T12:31:44;100789.88;;;9.71;40.99
53758;BME280;39674;59.860;30.672;2023-05-01T12:38:09;100818.88;;;9.90;40.65
53758;BME280;39674;59.860;30.672;2023-05-01T12:40:57;100937.09;;;10.59;40.88
53758;BME280;39674;59.860;30.672;2023-05-01T12:43:32;100946.66;;;10.80;40.73
53758;BME280;39674;59.860;30.672;2023-05-01T12:46:14;100967.06;;;10.95;39.97
53758;BME280;39674;59.860;30.672;2023-05-01T12:49:37;100897.22;;;10.64;40.39
53758;BME280;39674;59.860;30.672;2023-05-01T12:52:14;100819.13;;;10.22;39.46
53758;BME280;39674;59.860;30.672;2023-05-01T12:55:46;100823.72;;;10.18;38.99
53758;BME280;39674;59.860;30.672;2023-05-01T12:58:40;100849.09;;;10.21;40.09
53758;BME280;39674;59.860;30.672;2023-05-01T13:02:01;100899.44;;;10.54;39.69
53758;BME280;39674;59.860;30.672;2023-05-01T13:09:21;100806.63;;;9.89;40.36
53758;BME280;39674;59.860;30.672;2023-05-01T13:15:28;100953.38;;;10.87;40.18
53758;BME280;39674;59.860;30.672;2023-05-01T13:18:33;100958.38;;;10.74;40.25
53758;BME280;39674;59.860;30.672;2023-05-01T13:30:30;100885.34;;;9.98;39.86
53758;BME280;39674;59.860;30.672;2023-05-01T13:34:02;100836.25;;;9.56;38.47
53758;BME280;39674;59.860;30.672;2023-05-01T13:37:48;100823.06;;;9.56;37.16
53758;BME280;39674;59.860;30.672;2023-05-01T13:41:17;100834.25;;;9.42;37.21
53758;BME280;39674;59.860;30.672;2023-05-01T13:44:15;100845.00;;;9.37;37.69
53758;BME280;39674;59.860;30.672;2023-05-01T14:07:10;100930.56;;;10.09;38.31
53758;BME280;39674;59.860;30.672;2023-05-01T14:10:32;100913.94;;;10.07;37.91
53758;BME280;39674;59.860;30.672;2023-05-01T14:14:01;100949.28;;;10.24;37.72
53758;BME280;39674;59.860;30.672;2023-05-01T14:16:39;100916.03;;;10.01;36.50
53758;BME280;39674;59.860;30.672;2023-05-01T14:19:19;100933.63;;;10.00;37.37
53758;BME280;39674;59.860;30.672;2023-05-01T14:22:47;100871.34;;;9.77;37.84
53758;BME280;39674;59.860;30.672;2023-05-01T14:25:38;100940.81;;;9.96;38.03
53758;BME280;39674;59.860;30.672;2023-05-01T14:28:21;100923.38;;;9.73;37.65
53758;BME280;39674;59.860;30.672;2023-05-01T14:31:13;100913.50;;;9.78;36.75
53758;BME280;39674;59.860;30.672;2023-05-01T14:33:57;100945.53;;;9.90;37.00
53758;BME280;39674;59.860;30.672;2023-05-01T14:36:59;100888.88;;;9.59;36.57
53758;BME280;39674;59.860;30.672;2023-05-01T14:39:54;100950.47;;;9.77;36.65
53758;BME280;39674;59.860;30.672;2023-05-01T14:42:34;101017.94;;;10.03;37.20
53758;BME280;39674;59.860;30.672;2023-05-01T14:48:23;100948.59;;;9.60;38.40
53758;BME280;39674;59.860;30.672;2023-05-01T16:07:02;101033.78;;;9.19;40.10
53758;BME280;39674;59.860;30.672;2023-05-01T16:10:33;101061.78;;;9.22;39.88
53758;BME280;39674;59.860;30.672;2023-05-01T16:14:28;101052.84;;;9.26;41.07
53758;BME280;39674;59.860;30.672;2023-05-01T16:20:42;101028.41;;;9.00;40.26
53758;BME280;39674;59.860;30.672;2023-05-01T16:28:21;100999.59;;;8.73;41.23
53758;BME280;39674;59.860;30.672;2023-05-01T17:26:03;100933.00;;;7.26;48.39
53758;BME280;39674;59.860;30.672;2023-05-01T17:28:45;101062.13;;;7.94;46.98
53758;BME280;39674;59.860;30.672;2023-05-01T17:32:15;101053.63;;;7.85;48.14
53758;BME280;39674;59.860;30.672;2023-05-01T19:05:19;101105.97;;;5.49;58.08
53758;BME280;39674;59.860;30.672;2023-05-01T19:51:48;100957.84;;;3.79;60.38
53758;BME280;39674;59.860;30.672;2023-05-01T19:55:20;101102.66;;;4.62;59.47
53758;BME280;39674;59.860;30.672;2023-05-01T19:58:34;101022.66;;;4.07;60.65
53758;BME280;39674;59.860;30.672;2023-05-01T20:01:48;101082.41;;;4.28;60.45
53758;BME280;39674;59.860;30.672;2023-05-01T20:04:52;100978.06;;;3.69;60.63
53758;BME280;39674;59.860;30.672;2023-05-01T20:07:55;101114.91;;;4.60;59.52
53758;BME280;39674;59.860;30.672;2023-05-01T20:11:38;101113.28;;;4.53;62.38
53758;BME280;39674;59.860;30.672;2023-05-01T20:14:35;101060.72;;;4.23;61.74
53758;BME280;39674;59.860;30.672;2023-05-01T20:17:17;101109.16;;;4.41;62.88
53758;BME280;39674;59.860;30.672;2023-05-01T20:20:20;101057.50;;;4.09;62.95
53758;BME280;39674;59.860;30.672;2023-05-01T20:23:26;100994.31;;;3.85;62.44
53758;BME280;39674;59.860;30.672;2023-05-01T20:26:04;101108.84;;;4.57;61.86
53758;BME280;39674;59.860;30.672;2023-05-01T20:28:42;100950.09;;;3.76;61.79
53758;BME280;39674;59.860;30.672;2023-05-01T20:31:34;101064.47;;;4.52;61.21
53758;BME280;39674;59.860;30.672;2023-05-01T20:34:17;101059.13;;;4.58;62.05
53758;BME280;39674;59.860;30.672;2023-05-01T20:37:17;101070.28;;;4.66;62.05
53758;BME280;39674;59.860;30.672;2023-05-01T20:43:57;100978.56;;;4.33;61.61
53758;BME280;39674;59.860;30.672;2023-05-01T20:46:49;101022.34;;;4.66;61.70
53758;BME280;39674;59.860;30.672;2023-05-01T20:49:29;100968.97;;;4.32;62.38
53758;BME280;39674;59.860;30.672;2023-05-01T20:52:24;101049.78;;;4.87;61.98
53758;BME280;39674;59.860;30.672;2023-05-01T20:55:09;101062.03;;;4.85;62.55